Terminal Aerodrome Forecast
Issued by NWS

Home | Current Version | Previous Version | Text Only | Print | Product List | Glossary On
Versions: 1 2 3 4 5 6 7 8 9 10 11 12 13 14 15 16 17 18 19 20 21 22 23 24 25
000
FTUS41 KOKX 182300
TAFHPN
TAF
KHPN 182340Z 1900/1924 31012G18KT P6SM BKN035 BKN250
     FM190100 29010KT P6SM SCT035 BKN250
     FM191300 33011G17KT P6SM SCT035
     FM192200 32008KT P6SM SCT035
      AMD NOT SKED=

USA.gov is the U.S. government's official web portal to all federal, state and local government web resources and services.